createdAt,value
2022-09-17T00:01:24.178Z,9.79
2022-09-17T00:03:52.783Z,9.82
2022-09-17T00:06:22.243Z,9.74
2022-09-17T00:08:48.955Z,9.73
2022-09-17T00:11:24.804Z,9.73
2022-09-17T00:13:53.149Z,9.75
2022-09-17T00:16:26.595Z,9.73
2022-09-17T00:18:53.253Z,9.73
2022-09-17T00:21:20.449Z,9.70
2022-09-17T00:23:47.343Z,9.67
2022-09-17T00:26:16.373Z,9.66
2022-09-17T00:28:45.460Z,9.63
2022-09-17T00:31:12.231Z,9.56
2022-09-17T00:33:39.049Z,9.49
2022-09-17T00:36:06.343Z,9.56
2022-09-17T00:38:33.997Z,9.49
2022-09-17T00:41:02.028Z,9.47
2022-09-17T00:43:37.098Z,9.48
2022-09-17T00:46:10.895Z,9.46
2022-09-17T00:48:37.637Z,9.47
2022-09-17T00:51:06.700Z,9.45
2022-09-17T00:53:33.273Z,9.43
2022-09-17T00:56:23.803Z,9.32
2022-09-17T00:58:52.785Z,9.30
2022-09-17T01:01:19.707Z,9.35
2022-09-17T01:03:46.701Z,9.25
2022-09-17T01:06:34.575Z,9.23
2022-09-17T01:09:36.423Z,9.24
2022-09-17T01:12:15.174Z,9.27
2022-09-17T01:15:03.510Z,9.34
2022-09-17T01:17:54.735Z,9.35
2022-09-17T01:20:30.478Z,9.31
2022-09-17T01:23:18.828Z,9.36
2022-09-17T01:26:13.524Z,9.39
2022-09-17T01:28:55.262Z,9.38
2022-09-17T01:31:43.187Z,9.32
2022-09-17T01:34:28.702Z,9.19
2022-09-17T01:37:06.957Z,9.23
2022-09-17T01:40:05.735Z,9.17
2022-09-17T01:42:51.179Z,9.11
2022-09-17T01:45:19.972Z,9.11
2022-09-17T01:47:55.762Z,9.15
2022-09-17T01:50:28.008Z,9.07
2022-09-17T01:52:56.822Z,9.06
2022-09-17T01:55:29.950Z,9.06
2022-09-17T01:58:03.957Z,9.06
2022-09-17T02:00:30.727Z,9.05
2022-09-17T02:03:02.821Z,9.07
2022-09-17T02:05:38.483Z,9.08
2022-09-17T02:08:25.529Z,9.08
2022-09-17T02:11:04.714Z,8.90
2022-09-17T02:13:38.362Z,8.97
2022-09-17T02:16:17.012Z,8.94
2022-09-17T02:18:53.623Z,8.94
2022-09-17T02:21:53.217Z,8.90
2022-09-17T02:24:22.757Z,8.99
2022-09-17T02:26:58.132Z,8.83
2022-09-17T02:29:31.785Z,8.83
2022-09-17T02:31:58.449Z,8.79
2022-09-17T02:34:27.777Z,8.82
2022-09-17T02:36:55.568Z,8.86
2022-09-17T02:39:22.424Z,8.86
2022-09-17T02:41:51.880Z,8.84
2022-09-17T02:44:24.920Z,8.84
2022-09-17T02:47:29.011Z,8.90
2022-09-17T02:49:55.543Z,8.88
2022-09-17T02:52:34.504Z,8.84
2022-09-17T02:55:12.499Z,8.80
2022-09-17T02:57:59.304Z,8.82
2022-09-17T03:00:28.432Z,8.81
2022-09-17T03:03:04.359Z,8.79
2022-09-17T03:05:32.033Z,8.85
2022-09-17T03:08:00.321Z,8.85
2022-09-17T03:10:33.547Z,8.89
2022-09-17T03:13:00.126Z,8.90
2022-09-17T03:15:26.968Z,8.94
2022-09-17T03:17:53.722Z,8.93
2022-09-17T03:20:20.413Z,8.96
2022-09-17T03:22:47.300Z,8.97
2022-09-17T03:25:14.127Z,9.01
2022-09-17T03:27:41.052Z,8.93
2022-09-17T03:30:09.748Z,8.90
2022-09-17T03:32:36.300Z,8.99
2022-09-17T03:35:02.938Z,8.98
2022-09-17T03:37:32.863Z,8.94
2022-09-17T03:40:00.008Z,8.95
2022-09-17T03:42:26.618Z,8.94
2022-09-17T03:44:53.238Z,8.89
2022-09-17T03:47:19.773Z,8.90
2022-09-17T03:49:46.381Z,8.97
2022-09-17T03:52:12.958Z,8.93
2022-09-17T03:54:39.829Z,8.92
2022-09-17T03:57:06.469Z,9.00
2022-09-17T03:59:33.133Z,8.94
2022-09-17T04:01:59.873Z,8.97
2022-09-17T04:04:26.557Z,9.00
2022-09-17T04:06:53.324Z,8.99
2022-09-17T04:09:19.983Z,9.06
2022-09-17T04:11:46.613Z,8.99
2022-09-17T04:14:13.218Z,9.04
2022-09-17T04:16:39.774Z,9.09
2022-09-17T04:19:06.482Z,9.05
2022-09-17T04:21:33.054Z,9.06
2022-09-17T04:24:00.067Z,9.12
2022-09-17T04:26:26.636Z,9.08
2022-09-17T04:28:53.238Z,9.00
2022-09-17T04:31:19.853Z,9.02
2022-09-17T04:33:46.454Z,9.03
2022-09-17T04:36:13.016Z,9.04
2022-09-17T04:38:39.601Z,8.99
2022-09-17T04:41:09.273Z,9.00
2022-09-17T04:43:35.879Z,9.05
2022-09-17T04:46:02.609Z,9.07
2022-09-17T04:48:29.170Z,9.11
2022-09-17T04:50:55.794Z,9.13
2022-09-17T04:53:22.386Z,9.14
2022-09-17T04:55:48.962Z,9.21
2022-09-17T04:58:15.523Z,9.19
2022-09-17T05:00:42.617Z,9.19
2022-09-17T05:03:09.288Z,9.19
2022-09-17T05:05:35.949Z,9.15
2022-09-17T05:08:02.719Z,9.19
2022-09-17T05:10:29.414Z,9.18
2022-09-17T05:12:56.999Z,9.14
2022-09-17T05:15:25.342Z,9.15
2022-09-17T05:17:52.193Z,9.14
2022-09-17T05:20:19.275Z,9.13
2022-09-17T05:22:48.441Z,9.20
2022-09-17T05:25:17.264Z,9.20
2022-09-17T05:27:44.132Z,9.20
2022-09-17T05:30:12.006Z,9.24
2022-09-17T05:32:39.202Z,9.26
2022-09-17T05:35:06.594Z,9.26
2022-09-17T05:37:33.311Z,9.30
2022-09-17T05:40:00.228Z,9.28
2022-09-17T05:42:26.871Z,9.31
2022-09-17T05:44:53.410Z,9.31
2022-09-17T05:47:19.992Z,9.29
2022-09-17T05:49:46.545Z,9.28
2022-09-17T05:52:13.201Z,9.28
2022-09-17T05:54:39.868Z,9.33
2022-09-17T05:57:06.547Z,9.33
2022-09-17T05:59:33.451Z,9.34
2022-09-17T06:02:00.160Z,9.34
2022-09-17T06:04:27.710Z,9.38
2022-09-17T06:06:56.198Z,9.35
2022-09-17T06:09:22.757Z,9.38
2022-09-17T06:11:49.402Z,9.39
2022-09-17T06:14:16.427Z,9.47
2022-09-17T06:16:43.120Z,9.54
2022-09-17T06:19:09.734Z,9.51
2022-09-17T06:21:36.361Z,9.55
2022-09-17T06:24:03.113Z,9.59
2022-09-17T06:26:29.854Z,9.57
2022-09-17T06:28:56.424Z,9.58
2022-09-17T06:31:23.063Z,9.55
2022-09-17T06:33:51.187Z,9.50
2022-09-17T06:36:17.833Z,9.62
2022-09-17T06:38:45.621Z,9.69
2022-09-17T06:41:13.430Z,9.68
2022-09-17T06:43:40.122Z,9.70
2022-09-17T06:46:09.106Z,9.64
2022-09-17T06:48:37.452Z,9.62
2022-09-17T06:51:07.109Z,9.70
2022-09-17T06:53:34.446Z,9.68
2022-09-17T06:56:06.296Z,9.64
2022-09-17T06:58:34.208Z,9.79
2022-09-17T07:01:01.903Z,9.80
2022-09-17T07:03:30.182Z,9.75
2022-09-17T07:05:57.816Z,9.74
2022-09-17T07:08:26.108Z,9.81
2022-09-17T07:10:56.535Z,9.86
2022-09-17T07:13:23.851Z,9.81
2022-09-17T07:15:58.277Z,9.83
2022-09-17T07:18:25.825Z,9.89
2022-09-17T07:20:57.282Z,9.90
2022-09-17T07:23:25.621Z,9.98
2022-09-17T07:25:53.573Z,10.09
2022-09-17T07:28:21.017Z,10.26
2022-09-17T07:30:47.655Z,10.14
2022-09-17T07:33:16.410Z,10.29
2022-09-17T07:35:43.085Z,10.29
2022-09-17T07:38:09.679Z,10.32
2022-09-17T07:40:36.274Z,10.38
2022-09-17T07:43:02.876Z,10.39
2022-09-17T07:45:29.682Z,10.42
2022-09-17T07:47:56.249Z,10.58
2022-09-17T07:50:22.891Z,10.57
2022-09-17T07:52:49.517Z,10.47
2022-09-17T07:55:16.708Z,10.45
2022-09-17T07:57:43.285Z,10.46
2022-09-17T08:00:10.443Z,10.81
2022-09-17T08:02:37.179Z,10.78
2022-09-17T08:05:04.125Z,10.80
2022-09-17T08:07:30.721Z,10.89
2022-09-17T08:09:57.304Z,10.82
2022-09-17T08:12:23.984Z,10.85
2022-09-17T08:14:50.521Z,10.84
2022-09-17T08:17:17.462Z,10.91
2022-09-17T08:19:44.057Z,10.88
2022-09-17T08:22:10.618Z,10.92
2022-09-17T08:24:37.205Z,10.95
2022-09-17T08:27:03.952Z,11.04
2022-09-17T08:29:34.986Z,10.99
2022-09-17T08:32:02.036Z,10.87
2022-09-17T08:34:28.592Z,11.03
2022-09-17T08:36:55.126Z,11.09
2022-09-17T08:39:21.692Z,11.25
2022-09-17T08:42:03.109Z,11.37
2022-09-17T08:44:41.206Z,11.41
2022-09-17T08:47:37.882Z,11.40
2022-09-17T08:50:07.759Z,11.45
2022-09-17T08:52:50.018Z,11.54
2022-09-17T08:55:34.963Z,11.37
2022-09-17T08:58:39.921Z,11.19
2022-09-17T09:01:12.629Z,11.20
2022-09-17T09:03:54.295Z,11.37
2022-09-17T09:06:27.234Z,11.42
2022-09-17T09:09:03.892Z,11.45
2022-09-17T09:11:31.536Z,11.70
2022-09-17T09:14:50.697Z,11.66
2022-09-17T09:17:21.558Z,11.92
2022-09-17T09:19:49.914Z,12.09
2022-09-17T09:22:45.451Z,12.01
2022-09-17T09:25:29.482Z,11.96
2022-09-17T09:28:26.475Z,11.78
2022-09-17T09:31:30.901Z,11.63
2022-09-17T09:33:58.498Z,11.81
2022-09-17T09:36:29.814Z,11.59
2022-09-17T09:39:04.489Z,11.47
2022-09-17T09:41:40.638Z,11.21
2022-09-17T09:44:13.269Z,11.12
2022-09-17T09:46:49.228Z,11.14
2022-09-17T09:49:36.453Z,10.92
2022-09-17T09:52:10.869Z,11.06
2022-09-17T09:54:55.945Z,11.31
2022-09-17T09:57:47.565Z,11.36
2022-09-17T10:00:36.791Z,11.47
2022-09-17T10:03:23.553Z,11.36
2022-09-17T10:06:10.993Z,11.37
2022-09-17T10:08:40.271Z,11.25
2022-09-17T10:11:18.083Z,11.42
2022-09-17T10:13:44.645Z,11.53
2022-09-17T10:16:20.086Z,11.54
2022-09-17T10:18:48.613Z,11.46
2022-09-17T10:21:23.380Z,11.28
2022-09-17T10:23:51.048Z,11.18
2022-09-17T10:26:24.100Z,11.16
2022-09-17T10:28:53.769Z,11.13
2022-09-17T10:31:20.900Z,11.18
2022-09-17T10:33:53.297Z,11.16
2022-09-17T10:36:42.554Z,11.09
2022-09-17T10:39:44.577Z,11.10
2022-09-17T10:42:12.376Z,11.06
2022-09-17T10:44:50.537Z,11.13
2022-09-17T10:47:31.022Z,11.31
2022-09-17T10:50:31.080Z,11.50
2022-09-17T10:53:01.681Z,11.65
2022-09-17T10:55:34.828Z,11.83
2022-09-17T10:58:07.590Z,11.81
2022-09-17T11:00:34.246Z,12.10
2022-09-17T11:03:32.999Z,12.18
2022-09-17T11:05:59.714Z,12.25
2022-09-17T11:08:32.536Z,12.25
2022-09-17T11:11:09.545Z,12.24
2022-09-17T11:14:01.527Z,12.19
2022-09-17T11:16:34.315Z,12.21
2022-09-17T11:19:10.418Z,12.10
2022-09-17T11:21:54.921Z,12.29
2022-09-17T11:24:36.496Z,12.53
2022-09-17T11:27:15.496Z,12.49
2022-09-17T11:30:05.147Z,12.59
2022-09-17T11:32:37.366Z,12.58
2022-09-17T11:35:12.065Z,12.61
2022-09-17T11:37:49.143Z,12.71
2022-09-17T11:40:48.073Z,12.97
2022-09-17T11:43:17.857Z,13.08
2022-09-17T11:46:20.150Z,13.23
2022-09-17T11:49:05.302Z,13.14
2022-09-17T11:51:39.814Z,13.49
2022-09-17T11:54:08.957Z,13.43
2022-09-17T11:56:42.942Z,13.65
2022-09-17T11:59:32.440Z,13.65
2022-09-17T12:02:05.579Z,13.73
2022-09-17T12:04:57.024Z,13.33
2022-09-17T12:08:11.286Z,13.84
2022-09-17T12:10:49.690Z,14.13
2022-09-17T12:13:48.583Z,14.29
2022-09-17T12:16:30.449Z,13.84
2022-09-17T12:19:01.141Z,13.30
2022-09-17T12:21:38.040Z,13.00
2022-09-17T12:24:26.879Z,12.94
2022-09-17T12:27:21.776Z,12.82
2022-09-17T12:30:19.264Z,12.59
2022-09-17T12:33:09.941Z,12.49
2022-09-17T12:36:04.034Z,12.00
2022-09-17T12:38:35.269Z,11.52
2022-09-17T12:41:10.927Z,12.20
2022-09-17T12:43:49.545Z,12.87
2022-09-17T12:46:21.888Z,13.34
2022-09-17T12:49:10.132Z,13.83
2022-09-17T12:52:03.528Z,13.84
2022-09-17T12:55:07.584Z,13.90
2022-09-17T12:57:43.392Z,14.31
2022-09-17T13:00:15.021Z,14.83
2022-09-17T13:02:44.053Z,15.09
2022-09-17T13:05:19.559Z,14.95
2022-09-17T13:07:55.161Z,14.39
2022-09-17T13:10:55.897Z,14.27
2022-09-17T13:13:43.865Z,14.21
2022-09-17T13:16:37.321Z,14.27
2022-09-17T13:19:24.815Z,14.39
2022-09-17T13:22:07.114Z,14.05
2022-09-17T13:24:34.986Z,14.12
2022-09-17T13:27:04.156Z,14.04
2022-09-17T13:29:46.152Z,13.79
2022-09-17T13:32:38.935Z,14.31
2022-09-17T13:35:11.541Z,14.20
2022-09-17T13:37:58.690Z,14.17
2022-09-17T13:40:32.581Z,13.97
2022-09-17T13:43:10.518Z,14.40
2022-09-17T13:45:59.915Z,14.66
2022-09-17T13:48:28.646Z,14.41
2022-09-17T13:50:55.590Z,13.96
2022-09-17T13:53:26.973Z,13.89
2022-09-17T13:56:01.961Z,13.84
2022-09-17T13:58:33.993Z,13.59
2022-09-17T14:01:13.039Z,13.27
2022-09-17T14:03:44.612Z,12.86
2022-09-17T14:06:11.477Z,12.76
2022-09-17T14:08:44.207Z,12.70
2022-09-17T14:11:23.186Z,12.09
2022-09-17T14:13:50.584Z,11.47
2022-09-17T14:16:33.812Z,11.47
2022-09-17T14:19:15.426Z,11.55
2022-09-17T14:22:06.495Z,11.59
2022-09-17T14:24:37.703Z,12.07
2022-09-17T14:27:42.617Z,11.87
2022-09-17T14:30:12.528Z,11.74
2022-09-17T14:33:01.279Z,11.43
2022-09-17T14:35:48.267Z,11.69
2022-09-17T14:38:44.898Z,11.86
2022-09-17T14:41:11.495Z,11.94
2022-09-17T14:43:41.485Z,11.99
2022-09-17T14:46:13.796Z,12.08
2022-09-17T14:48:40.487Z,11.95
2022-09-17T14:51:18.958Z,11.97
2022-09-17T14:53:47.031Z,12.12
2022-09-17T14:56:19.757Z,12.23
2022-09-17T14:58:53.130Z,12.36
2022-09-17T15:01:31.114Z,12.50
2022-09-17T15:04:12.704Z,12.38
2022-09-17T15:06:40.696Z,12.43
2022-09-17T15:09:15.895Z,12.37
2022-09-17T15:11:45.262Z,12.46
2022-09-17T15:14:22.226Z,12.54
2022-09-17T15:16:51.317Z,12.49
2022-09-17T15:19:28.282Z,12.25
2022-09-17T15:21:57.399Z,12.20
2022-09-17T15:24:44.083Z,12.26
2022-09-17T15:27:45.364Z,12.34
2022-09-17T15:30:20.234Z,12.45
2022-09-17T15:32:54.088Z,12.49
2022-09-17T15:35:22.521Z,12.53
2022-09-17T15:38:18.583Z,12.43
2022-09-17T15:40:41.202Z,12.51
2022-09-17T15:43:29.548Z,12.45
2022-09-17T15:45:58.295Z,12.48
2022-09-17T15:48:27.565Z,12.31
2022-09-17T15:50:58.882Z,12.21
2022-09-17T15:53:31.092Z,12.06
2022-09-17T15:56:13.216Z,12.10
2022-09-17T15:58:42.621Z,12.02
2022-09-17T16:01:18.682Z,11.95
2022-09-17T16:03:45.421Z,11.79
2022-09-17T16:06:17.756Z,11.20
2022-09-17T16:08:47.405Z,10.42
2022-09-17T16:11:14.685Z,9.96
2022-09-17T16:13:41.564Z,9.82
2022-09-17T16:16:15.865Z,9.85
2022-09-17T16:18:42.556Z,9.79
2022-09-17T16:21:11.219Z,9.61
2022-09-17T16:23:37.966Z,9.61
2022-09-17T16:26:06.431Z,9.64
2022-09-17T16:28:34.395Z,9.55
2022-09-17T16:31:01.326Z,9.40
2022-09-17T16:33:28.354Z,9.33
2022-09-17T16:35:59.271Z,9.24
2022-09-17T16:38:26.547Z,9.25
2022-09-17T16:40:53.113Z,9.22
2022-09-17T16:43:19.771Z,9.28
2022-09-17T16:46:03.789Z,9.27
2022-09-17T16:48:31.294Z,9.29
2022-09-17T16:50:57.871Z,9.26
2022-09-17T16:53:24.820Z,9.27
2022-09-17T16:55:51.388Z,9.21
2022-09-17T16:58:18.010Z,9.13
2022-09-17T17:00:44.945Z,9.18
2022-09-17T17:03:15.421Z,9.13
2022-09-17T17:05:43.298Z,9.05
2022-09-17T17:08:10.553Z,9.02
2022-09-17T17:10:40.334Z,9.03
2022-09-17T17:13:06.986Z,8.99
2022-09-17T17:15:34.010Z,8.97
2022-09-17T17:18:00.721Z,8.93
2022-09-17T17:20:27.385Z,8.89
2022-09-17T17:22:55.350Z,8.82
2022-09-17T17:25:23.733Z,8.85
2022-09-17T17:27:50.477Z,8.86
2022-09-17T17:30:17.688Z,8.84
2022-09-17T17:32:48.942Z,8.84
2022-09-17T17:35:15.720Z,8.83
2022-09-17T17:37:42.879Z,8.82
2022-09-17T17:40:10.408Z,8.80
2022-09-17T17:42:39.532Z,8.81
2022-09-17T17:45:07.726Z,8.76
2022-09-17T17:47:34.607Z,8.78
2022-09-17T17:50:01.250Z,8.78
2022-09-17T17:52:28.095Z,8.79
2022-09-17T17:54:54.997Z,8.78
2022-09-17T17:57:21.680Z,8.73
2022-09-17T17:59:48.187Z,8.72
2022-09-17T18:02:14.879Z,8.71
2022-09-17T18:04:41.555Z,8.65
2022-09-17T18:07:08.182Z,8.66
2022-09-17T18:09:35.371Z,8.64
2022-09-17T18:12:02.219Z,8.68
2022-09-17T18:14:28.799Z,8.69
2022-09-17T18:16:55.413Z,8.73
2022-09-17T18:19:22.077Z,8.74
2022-09-17T18:21:48.677Z,8.74
2022-09-17T18:24:15.324Z,8.72
2022-09-17T18:26:41.900Z,8.76
2022-09-17T18:29:09.429Z,8.78
2022-09-17T18:31:37.814Z,8.80
2022-09-17T18:34:14.250Z,8.80
2022-09-17T18:36:42.225Z,8.81
2022-09-17T18:39:56.897Z,8.85
2022-09-17T18:42:01.292Z,8.84
2022-09-17T18:44:27.907Z,8.88
2022-09-17T18:46:54.560Z,8.89
2022-09-17T18:49:21.248Z,8.90
2022-09-17T18:51:47.876Z,8.86
2022-09-17T18:54:14.937Z,8.90
2022-09-17T18:56:41.852Z,8.89
2022-09-17T18:59:09.697Z,8.85
2022-09-17T19:01:36.657Z,8.84
2022-09-17T19:04:03.937Z,8.82
2022-09-17T19:06:32.089Z,8.78
2022-09-17T19:09:03.770Z,8.72
2022-09-17T19:11:30.531Z,8.70
2022-09-17T19:13:57.590Z,8.69
2022-09-17T19:16:24.319Z,8.68
2022-09-17T19:18:51.521Z,8.69
2022-09-17T19:21:20.660Z,8.68
2022-09-17T19:23:49.905Z,8.66
2022-09-17T19:26:19.249Z,8.69
2022-09-17T19:28:46.421Z,8.64
2022-09-17T19:31:15.607Z,8.58
2022-09-17T19:33:43.024Z,8.59
2022-09-17T19:36:15.477Z,8.56
2022-09-17T19:38:42.835Z,8.50
2022-09-17T19:41:15.670Z,8.51
2022-09-17T19:43:42.455Z,8.53
2022-09-17T19:46:15.447Z,8.55
2022-09-17T19:48:47.084Z,8.55
2022-09-17T19:51:13.944Z,8.61
2022-09-17T19:53:41.669Z,8.62
2022-09-17T19:56:12.795Z,8.62
2022-09-17T19:58:39.613Z,8.65
2022-09-17T20:01:06.647Z,8.64
2022-09-17T20:03:33.397Z,8.63
2022-09-17T20:06:00.979Z,8.57
2022-09-17T20:08:28.404Z,8.59
2022-09-17T20:10:55.104Z,8.55
2022-09-17T20:13:22.730Z,8.51
2022-09-17T20:15:49.387Z,8.53
2022-09-17T20:18:21.174Z,8.53
2022-09-17T20:20:50.075Z,8.55
2022-09-17T20:23:16.705Z,8.55
2022-09-17T20:25:44.656Z,8.56
2022-09-17T20:28:11.202Z,8.53
2022-09-17T20:30:37.824Z,8.52
2022-09-17T20:33:04.380Z,8.54
2022-09-17T20:35:30.968Z,8.49
2022-09-17T20:40:44.542Z,8.56
2022-09-17T20:43:11.080Z,8.54
2022-09-17T20:45:37.798Z,8.57
2022-09-17T20:48:04.452Z,8.59
2022-09-17T20:50:31.179Z,8.59
2022-09-17T20:52:57.805Z,8.60
2022-09-17T20:55:24.480Z,8.57
2022-09-17T20:57:54.108Z,8.53
2022-09-17T21:00:21.687Z,8.55
2022-09-17T21:02:52.555Z,8.54
2022-09-17T21:05:19.226Z,8.54
2022-09-17T21:07:45.824Z,8.55
2022-09-17T21:10:13.527Z,8.53
2022-09-17T21:12:40.121Z,8.58
2022-09-17T21:15:06.964Z,8.57
2022-09-17T21:17:33.980Z,8.57
2022-09-17T21:20:00.645Z,8.61
2022-09-17T21:22:27.245Z,8.64
2022-09-17T21:24:53.768Z,8.63
2022-09-17T21:27:20.382Z,8.58
2022-09-17T21:29:46.973Z,8.58
2022-09-17T21:32:13.552Z,8.56
2022-09-17T21:34:40.339Z,8.57
2022-09-17T21:37:06.859Z,8.58
2022-09-17T21:39:35.215Z,8.55
2022-09-17T21:42:01.785Z,8.54
2022-09-17T21:44:28.413Z,8.57
2022-09-17T21:46:57.670Z,8.53
2022-09-17T21:49:25.099Z,8.49
2022-09-17T21:51:52.098Z,8.50
2022-09-17T21:54:18.908Z,8.45
2022-09-17T21:56:46.663Z,8.46
2022-09-17T21:59:15.368Z,8.41
2022-09-17T22:01:46.567Z,8.40
2022-09-17T22:04:16.123Z,8.40
2022-09-17T22:06:44.292Z,8.41
2022-09-17T22:09:17.673Z,8.39
2022-09-17T22:11:45.310Z,8.39
2022-09-17T22:14:24.197Z,8.41
2022-09-17T22:16:55.728Z,8.41
2022-09-17T22:19:23.755Z,8.42
2022-09-17T22:21:55.354Z,8.50
2022-09-17T22:24:23.251Z,8.53
2022-09-17T22:26:56.877Z,8.55
2022-09-17T22:29:25.515Z,8.54
2022-09-17T22:31:52.199Z,8.60
2022-09-17T22:34:21.452Z,8.62
2022-09-17T22:36:48.264Z,8.61
2022-09-17T22:39:15.660Z,8.61
2022-09-17T22:41:45.874Z,8.66
2022-09-17T22:44:20.030Z,8.69
2022-09-17T22:46:48.889Z,8.66
2022-09-17T22:49:16.294Z,8.65
2022-09-17T22:51:43.623Z,8.66
2022-09-17T22:54:12.109Z,8.67
2022-09-17T22:56:38.909Z,8.61
2022-09-17T22:59:05.606Z,8.61
2022-09-17T23:01:34.064Z,8.64
2022-09-17T23:04:01.281Z,8.62
2022-09-17T23:06:35.741Z,8.61
2022-09-17T23:09:02.976Z,8.64
2022-09-17T23:11:32.292Z,8.65
2022-09-17T23:14:02.270Z,8.62
2022-09-17T23:16:34.016Z,8.63
2022-09-17T23:19:00.680Z,8.66
2022-09-17T23:21:27.283Z,8.65
2022-09-17T23:23:53.810Z,8.67
2022-09-17T23:26:23.508Z,8.70
2022-09-17T23:28:50.642Z,8.71
2022-09-17T23:31:20.618Z,8.73
2022-09-17T23:33:48.449Z,8.74
2022-09-17T23:36:21.752Z,8.74
2022-09-17T23:38:49.113Z,8.76
2022-09-17T23:41:15.674Z,8.78
2022-09-17T23:43:43.113Z,8.79
2022-09-17T23:46:10.283Z,8.72
2022-09-17T23:48:37.449Z,8.74
2022-09-17T23:51:05.366Z,8.73
2022-09-17T23:53:33.681Z,8.70
2022-09-17T23:56:01.142Z,8.75
2022-09-17T23:58:31.421Z,8.75
